sensor_id;sensor_type;location;lat;lon;timestamp;P1;durP1;ratioP1;P2;durP2;ratioP2
67185;SDS011;54116;53.518;49.398;2023-02-15T00:02:00;15.35;;;5.55;;
67185;SDS011;54116;53.518;49.398;2023-02-15T00:04:26;18.90;;;5.35;;
67185;SDS011;54116;53.518;49.398;2023-02-15T00:07:12;13.27;;;5.40;;
67185;SDS011;54116;53.518;49.398;2023-02-15T00:09:39;14.30;;;5.20;;
67185;SDS011;54116;53.518;49.398;2023-02-15T00:12:05;14.85;;;4.78;;
67185;SDS011;54116;53.518;49.398;2023-02-15T00:14:31;18.58;;;5.35;;
67185;SDS011;54116;53.518;49.398;2023-02-15T00:16:57;16.25;;;5.00;;
67185;SDS011;54116;53.518;49.398;2023-02-15T00:19:25;11.57;;;4.68;;
67185;SDS011;54116;53.518;49.398;2023-02-15T00:21:51;13.68;;;4.55;;
67185;SDS011;54116;53.518;49.398;2023-02-15T00:24:18;14.63;;;4.60;;
67185;SDS011;54116;53.518;49.398;2023-02-15T00:26:45;10.52;;;4.55;;
67185;SDS011;54116;53.518;49.398;2023-02-15T00:29:13;10.60;;;3.70;;
67185;SDS011;54116;53.518;49.398;2023-02-15T00:31:40;9.30;;;3.72;;
67185;SDS011;54116;53.518;49.398;2023-02-15T00:34:07;7.57;;;3.20;;
67185;SDS011;54116;53.518;49.398;2023-02-15T00:36:36;11.75;;;4.53;;
67185;SDS011;54116;53.518;49.398;2023-02-15T00:39:03;12.93;;;3.70;;
67185;SDS011;54116;53.518;49.398;2023-02-15T00:41:30;10.77;;;3.65;;
67185;SDS011;54116;53.518;49.398;2023-02-15T00:43:57;10.45;;;3.75;;
67185;SDS011;54116;53.518;49.398;2023-02-15T00:46:23;7.68;;;2.80;;
67185;SDS011;54116;53.518;49.398;2023-02-15T00:48:49;9.82;;;3.65;;
67185;SDS011;54116;53.518;49.398;2023-02-15T00:51:16;9.98;;;3.28;;
67185;SDS011;54116;53.518;49.398;2023-02-15T00:53:42;10.32;;;3.67;;
67185;SDS011;54116;53.518;49.398;2023-02-15T00:56:12;9.27;;;3.22;;
67185;SDS011;54116;53.518;49.398;2023-02-15T00:58:38;12.93;;;4.00;;
67185;SDS011;54116;53.518;49.398;2023-02-15T01:01:05;12.68;;;3.85;;
67185;SDS011;54116;53.518;49.398;2023-02-15T01:03:34;11.18;;;4.07;;
67185;SDS011;54116;53.518;49.398;2023-02-15T01:06:01;11.15;;;3.95;;
67185;SDS011;54116;53.518;49.398;2023-02-15T01:08:28;11.57;;;4.55;;
67185;SDS011;54116;53.518;49.398;2023-02-15T01:10:54;9.10;;;4.38;;
67185;SDS011;54116;53.518;49.398;2023-02-15T01:13:21;7.72;;;3.58;;
67185;SDS011;54116;53.518;49.398;2023-02-15T01:15:53;9.10;;;3.58;;
67185;SDS011;54116;53.518;49.398;2023-02-15T01:18:20;9.82;;;3.80;;
67185;SDS011;54116;53.518;49.398;2023-02-15T01:20:47;11.50;;;4.53;;
67185;SDS011;54116;53.518;49.398;2023-02-15T01:23:14;11.65;;;3.88;;
67185;SDS011;54116;53.518;49.398;2023-02-15T01:25:40;10.40;;;4.63;;
67185;SDS011;54116;53.518;49.398;2023-02-15T01:28:07;12.05;;;4.53;;
67185;SDS011;54116;53.518;49.398;2023-02-15T01:30:33;10.68;;;2.83;;
67185;SDS011;54116;53.518;49.398;2023-02-15T01:35:57;8.82;;;3.83;;
67185;SDS011;54116;53.518;49.398;2023-02-15T01:38:23;9.20;;;2.97;;
67185;SDS011;54116;53.518;49.398;2023-02-15T01:40:50;9.95;;;4.10;;
67185;SDS011;54116;53.518;49.398;2023-02-15T01:43:18;11.70;;;4.22;;
67185;SDS011;54116;53.518;49.398;2023-02-15T01:48:20;8.60;;;3.45;;
67185;SDS011;54116;53.518;49.398;2023-02-15T01:50:52;9.63;;;3.95;;
67185;SDS011;54116;53.518;49.398;2023-02-15T01:56:11;11.25;;;4.60;;
67185;SDS011;54116;53.518;49.398;2023-02-15T01:58:40;10.18;;;3.72;;
67185;SDS011;54116;53.518;49.398;2023-02-15T02:01:08;11.45;;;4.60;;
67185;SDS011;54116;53.518;49.398;2023-02-15T02:03:38;11.80;;;3.58;;
67185;SDS011;54116;53.518;49.398;2023-02-15T02:06:05;11.07;;;4.00;;
67185;SDS011;54116;53.518;49.398;2023-02-15T02:08:31;12.25;;;4.43;;
67185;SDS011;54116;53.518;49.398;2023-02-15T02:11:01;12.80;;;3.97;;
67185;SDS011;54116;53.518;49.398;2023-02-15T02:13:27;12.57;;;5.07;;
67185;SDS011;54116;53.518;49.398;2023-02-15T02:16:16;9.88;;;3.78;;
67185;SDS011;54116;53.518;49.398;2023-02-15T02:35:02;10.77;;;3.63;;
67185;SDS011;54116;53.518;49.398;2023-02-15T02:40:57;13.50;;;4.45;;
67185;SDS011;54116;53.518;49.398;2023-02-15T02:43:33;12.65;;;4.90;;
67185;SDS011;54116;53.518;49.398;2023-02-15T02:46:15;13.35;;;5.35;;
67185;SDS011;54116;53.518;49.398;2023-02-15T02:48:46;10.98;;;3.95;;
67185;SDS011;54116;53.518;49.398;2023-02-15T02:51:14;15.45;;;5.45;;
67185;SDS011;54116;53.518;49.398;2023-02-15T02:53:48;15.60;;;4.85;;
67185;SDS011;54116;53.518;49.398;2023-02-15T02:59:09;13.40;;;5.47;;
67185;SDS011;54116;53.518;49.398;2023-02-15T03:01:58;14.27;;;5.15;;
67185;SDS011;54116;53.518;49.398;2023-02-15T03:04:35;17.13;;;5.43;;
67185;SDS011;54116;53.518;49.398;2023-02-15T03:07:07;12.93;;;5.75;;
67185;SDS011;54116;53.518;49.398;2023-02-15T03:09:45;16.13;;;5.95;;
67185;SDS011;54116;53.518;49.398;2023-02-15T03:12:14;15.23;;;6.13;;
67185;SDS011;54116;53.518;49.398;2023-02-15T03:14:44;19.05;;;6.95;;
67185;SDS011;54116;53.518;49.398;2023-02-15T03:17:20;20.63;;;7.55;;
67185;SDS011;54116;53.518;49.398;2023-02-15T03:19:49;27.67;;;10.82;;
67185;SDS011;54116;53.518;49.398;2023-02-15T03:22:23;28.38;;;10.45;;
67185;SDS011;54116;53.518;49.398;2023-02-15T03:25:02;26.90;;;11.02;;
67185;SDS011;54116;53.518;49.398;2023-02-15T03:27:35;26.42;;;10.63;;
67185;SDS011;54116;53.518;49.398;2023-02-15T03:30:06;29.70;;;10.63;;
67185;SDS011;54116;53.518;49.398;2023-02-15T03:32:34;24.67;;;9.57;;
67185;SDS011;54116;53.518;49.398;2023-02-15T03:35:02;25.65;;;9.40;;
67185;SDS011;54116;53.518;49.398;2023-02-15T03:37:34;23.20;;;8.70;;
67185;SDS011;54116;53.518;49.398;2023-02-15T03:46:06;18.95;;;8.40;;
67185;SDS011;54116;53.518;49.398;2023-02-15T03:48:39;21.63;;;7.95;;
67185;SDS011;54116;53.518;49.398;2023-02-15T03:51:14;18.67;;;7.40;;
67185;SDS011;54116;53.518;49.398;2023-02-15T03:56:40;21.30;;;9.00;;
67185;SDS011;54116;53.518;49.398;2023-02-15T03:59:07;19.70;;;6.70;;
67185;SDS011;54116;53.518;49.398;2023-02-15T04:04:34;20.80;;;8.07;;
67185;SDS011;54116;53.518;49.398;2023-02-15T04:07:03;20.17;;;8.15;;
67185;SDS011;54116;53.518;49.398;2023-02-15T04:09:31;20.30;;;7.72;;
67185;SDS011;54116;53.518;49.398;2023-02-15T04:12:15;17.83;;;7.50;;
67185;SDS011;54116;53.518;49.398;2023-02-15T04:14:43;23.25;;;9.38;;
67185;SDS011;54116;53.518;49.398;2023-02-15T04:17:27;22.90;;;8.02;;
67185;SDS011;54116;53.518;49.398;2023-02-15T04:19:54;20.17;;;8.10;;
67185;SDS011;54116;53.518;49.398;2023-02-15T04:22:38;15.60;;;6.15;;
67185;SDS011;54116;53.518;49.398;2023-02-15T04:25:22;19.20;;;6.25;;
67185;SDS011;54116;53.518;49.398;2023-02-15T04:27:49;14.70;;;5.40;;
67185;SDS011;54116;53.518;49.398;2023-02-15T04:30:18;21.60;;;7.15;;
67185;SDS011;54116;53.518;49.398;2023-02-15T04:32:46;18.60;;;7.30;;
67185;SDS011;54116;53.518;49.398;2023-02-15T04:35:12;18.92;;;6.43;;
67185;SDS011;54116;53.518;49.398;2023-02-15T04:37:39;19.38;;;7.07;;
67185;SDS011;54116;53.518;49.398;2023-02-15T04:40:07;21.27;;;8.18;;
67185;SDS011;54116;53.518;49.398;2023-02-15T04:42:34;20.10;;;8.65;;
67185;SDS011;54116;53.518;49.398;2023-02-15T04:45:00;21.52;;;7.68;;
67185;SDS011;54116;53.518;49.398;2023-02-15T04:47:27;18.55;;;6.55;;
67185;SDS011;54116;53.518;49.398;2023-02-15T04:49:53;15.75;;;6.13;;
67185;SDS011;54116;53.518;49.398;2023-02-15T04:52:19;19.42;;;6.85;;
67185;SDS011;54116;53.518;49.398;2023-02-15T04:54:46;18.67;;;7.57;;
67185;SDS011;54116;53.518;49.398;2023-02-15T04:57:25;19.58;;;7.47;;
67185;SDS011;54116;53.518;49.398;2023-02-15T04:59:52;20.27;;;7.22;;
67185;SDS011;54116;53.518;49.398;2023-02-15T05:02:18;20.90;;;8.10;;
67185;SDS011;54116;53.518;49.398;2023-02-15T05:04:44;21.52;;;7.75;;
67185;SDS011;54116;53.518;49.398;2023-02-15T05:07:11;50.28;;;13.93;;
67185;SDS011;54116;53.518;49.398;2023-02-15T05:09:37;28.90;;;8.38;;
67185;SDS011;54116;53.518;49.398;2023-02-15T05:12:03;16.80;;;6.43;;
67185;SDS011;54116;53.518;49.398;2023-02-15T05:14:29;22.02;;;6.97;;
67185;SDS011;54116;53.518;49.398;2023-02-15T05:16:55;15.75;;;5.80;;
67185;SDS011;54116;53.518;49.398;2023-02-15T05:19:23;16.08;;;5.63;;
67185;SDS011;54116;53.518;49.398;2023-02-15T05:21:50;27.83;;;8.73;;
67185;SDS011;54116;53.518;49.398;2023-02-15T05:24:16;16.77;;;7.07;;
67185;SDS011;54116;53.518;49.398;2023-02-15T05:27:02;20.92;;;7.60;;
67185;SDS011;54116;53.518;49.398;2023-02-15T05:29:47;16.88;;;6.50;;
67185;SDS011;54116;53.518;49.398;2023-02-15T05:32:13;19.13;;;6.13;;
67185;SDS011;54116;53.518;49.398;2023-02-15T05:34:40;12.95;;;5.43;;
67185;SDS011;54116;53.518;49.398;2023-02-15T05:37:06;15.57;;;6.18;;
67185;SDS011;54116;53.518;49.398;2023-02-15T05:39:33;17.15;;;6.82;;
67185;SDS011;54116;53.518;49.398;2023-02-15T05:41:59;15.93;;;5.72;;
67185;SDS011;54116;53.518;49.398;2023-02-15T05:46:52;22.38;;;6.85;;
67185;SDS011;54116;53.518;49.398;2023-02-15T05:49:18;21.88;;;8.27;;
67185;SDS011;54116;53.518;49.398;2023-02-15T05:51:44;24.38;;;7.03;;
67185;SDS011;54116;53.518;49.398;2023-02-15T05:54:10;24.77;;;8.75;;
67185;SDS011;54116;53.518;49.398;2023-02-15T05:56:36;21.40;;;7.35;;
67185;SDS011;54116;53.518;49.398;2023-02-15T05:59:05;16.67;;;7.35;;
67185;SDS011;54116;53.518;49.398;2023-02-15T06:01:31;13.45;;;5.82;;
67185;SDS011;54116;53.518;49.398;2023-02-15T06:03:57;14.50;;;5.20;;
67185;SDS011;54116;53.518;49.398;2023-02-15T06:06:23;12.80;;;4.95;;
67185;SDS011;54116;53.518;49.398;2023-02-15T06:08:50;14.75;;;6.03;;
67185;SDS011;54116;53.518;49.398;2023-02-15T06:11:16;17.02;;;5.28;;
67185;SDS011;54116;53.518;49.398;2023-02-15T06:13:42;19.08;;;6.15;;
67185;SDS011;54116;53.518;49.398;2023-02-15T06:16:08;16.67;;;5.28;;
67185;SDS011;54116;53.518;49.398;2023-02-15T06:18:34;13.57;;;5.80;;
67185;SDS011;54116;53.518;49.398;2023-02-15T06:21:00;16.45;;;7.15;;
67185;SDS011;54116;53.518;49.398;2023-02-15T06:23:26;15.02;;;5.35;;
67185;SDS011;54116;53.518;49.398;2023-02-15T06:25:52;20.95;;;8.30;;
67185;SDS011;54116;53.518;49.398;2023-02-15T06:28:18;19.85;;;7.30;;
67185;SDS011;54116;53.518;49.398;2023-02-15T06:30:45;14.68;;;5.55;;
67185;SDS011;54116;53.518;49.398;2023-02-15T06:33:13;14.00;;;6.65;;
67185;SDS011;54116;53.518;49.398;2023-02-15T06:35:39;13.82;;;5.10;;
67185;SDS011;54116;53.518;49.398;2023-02-15T06:38:05;19.77;;;6.88;;
67185;SDS011;54116;53.518;49.398;2023-02-15T06:40:31;19.67;;;7.03;;
67185;SDS011;54116;53.518;49.398;2023-02-15T06:42:57;22.35;;;7.80;;
67185;SDS011;54116;53.518;49.398;2023-02-15T06:45:23;18.20;;;6.82;;
67185;SDS011;54116;53.518;49.398;2023-02-15T06:47:49;17.98;;;6.78;;
67185;SDS011;54116;53.518;49.398;2023-02-15T06:50:16;18.20;;;6.20;;
67185;SDS011;54116;53.518;49.398;2023-02-15T06:52:44;15.15;;;6.38;;
67185;SDS011;54116;53.518;49.398;2023-02-15T06:55:10;11.85;;;4.55;;
67185;SDS011;54116;53.518;49.398;2023-02-15T06:57:36;17.20;;;6.38;;
67185;SDS011;54116;53.518;49.398;2023-02-15T07:00:02;15.32;;;5.22;;
67185;SDS011;54116;53.518;49.398;2023-02-15T07:02:30;18.88;;;6.65;;
67185;SDS011;54116;53.518;49.398;2023-02-15T07:04:56;14.57;;;4.90;;
67185;SDS011;54116;53.518;49.398;2023-02-15T07:07:22;15.52;;;6.20;;
67185;SDS011;54116;53.518;49.398;2023-02-15T07:09:48;16.70;;;5.35;;
67185;SDS011;54116;53.518;49.398;2023-02-15T07:12:15;20.65;;;7.15;;
67185;SDS011;54116;53.518;49.398;2023-02-15T07:14:59;21.83;;;8.50;;
67185;SDS011;54116;53.518;49.398;2023-02-15T07:17:26;22.95;;;7.65;;
67185;SDS011;54116;53.518;49.398;2023-02-15T07:19:54;21.58;;;8.43;;
67185;SDS011;54116;53.518;49.398;2023-02-15T07:22:20;20.88;;;8.70;;
67185;SDS011;54116;53.518;49.398;2023-02-15T07:24:47;18.13;;;7.85;;
67185;SDS011;54116;53.518;49.398;2023-02-15T07:27:20;21.88;;;9.45;;
67185;SDS011;54116;53.518;49.398;2023-02-15T07:29:46;24.63;;;8.95;;
67185;SDS011;54116;53.518;49.398;2023-02-15T07:32:13;22.77;;;8.27;;
67185;SDS011;54116;53.518;49.398;2023-02-15T07:34:40;21.25;;;7.97;;
67185;SDS011;54116;53.518;49.398;2023-02-15T07:37:06;22.92;;;9.70;;
67185;SDS011;54116;53.518;49.398;2023-02-15T07:39:32;24.45;;;9.30;;
67185;SDS011;54116;53.518;49.398;2023-02-15T07:42:00;25.45;;;6.88;;
67185;SDS011;54116;53.518;49.398;2023-02-15T07:44:28;20.23;;;7.60;;
67185;SDS011;54116;53.518;49.398;2023-02-15T07:46:54;10.90;;;4.40;;
67185;SDS011;54116;53.518;49.398;2023-02-15T07:49:20;14.50;;;4.22;;
67185;SDS011;54116;53.518;49.398;2023-02-15T07:51:47;11.40;;;4.55;;
67185;SDS011;54116;53.518;49.398;2023-02-15T07:54:14;9.90;;;4.47;;
67185;SDS011;54116;53.518;49.398;2023-02-15T07:56:40;9.80;;;4.82;;
67185;SDS011;54116;53.518;49.398;2023-02-15T07:59:07;11.73;;;4.20;;
67185;SDS011;54116;53.518;49.398;2023-02-15T08:04:01;12.75;;;5.78;;
67185;SDS011;54116;53.518;49.398;2023-02-15T08:06:29;9.30;;;4.25;;
67185;SDS011;54116;53.518;49.398;2023-02-15T08:08:57;12.95;;;3.97;;
67185;SDS011;54116;53.518;49.398;2023-02-15T08:11:25;10.93;;;5.13;;
67185;SDS011;54116;53.518;49.398;2023-02-15T08:13:59;11.40;;;4.75;;
67185;SDS011;54116;53.518;49.398;2023-02-15T08:21:53;9.77;;;4.57;;
67185;SDS011;54116;53.518;49.398;2023-02-15T08:24:23;10.15;;;4.30;;
67185;SDS011;54116;53.518;49.398;2023-02-15T08:26:51;11.35;;;4.07;;
67185;SDS011;54116;53.518;49.398;2023-02-15T08:29:18;10.50;;;4.13;;
67185;SDS011;54116;53.518;49.398;2023-02-15T08:31:48;12.18;;;4.25;;
67185;SDS011;54116;53.518;49.398;2023-02-15T08:34:15;11.10;;;4.50;;
67185;SDS011;54116;53.518;49.398;2023-02-15T08:36:43;13.57;;;4.20;;
67185;SDS011;54116;53.518;49.398;2023-02-15T08:39:10;10.38;;;4.15;;
67185;SDS011;54116;53.518;49.398;2023-02-15T08:41:38;11.18;;;3.92;;
67185;SDS011;54116;53.518;49.398;2023-02-15T08:44:06;13.05;;;4.75;;
67185;SDS011;54116;53.518;49.398;2023-02-15T08:46:35;15.10;;;4.00;;
67185;SDS011;54116;53.518;49.398;2023-02-15T08:49:03;9.25;;;3.83;;
67185;SDS011;54116;53.518;49.398;2023-02-15T08:51:30;9.82;;;3.80;;
67185;SDS011;54116;53.518;49.398;2023-02-15T08:53:59;10.25;;;3.95;;
67185;SDS011;54116;53.518;49.398;2023-02-15T08:56:28;11.50;;;3.63;;
67185;SDS011;54116;53.518;49.398;2023-02-15T08:58:58;10.43;;;3.90;;
67185;SDS011;54116;53.518;49.398;2023-02-15T09:01:28;12.77;;;4.63;;
67185;SDS011;54116;53.518;49.398;2023-02-15T09:03:57;9.13;;;3.45;;
67185;SDS011;54116;53.518;49.398;2023-02-15T09:06:25;8.52;;;3.97;;
67185;SDS011;54116;53.518;49.398;2023-02-15T09:08:52;11.23;;;4.82;;
67185;SDS011;54116;53.518;49.398;2023-02-15T09:11:24;10.88;;;5.05;;
67185;SDS011;54116;53.518;49.398;2023-02-15T09:14:00;9.98;;;4.10;;
67185;SDS011;54116;53.518;49.398;2023-02-15T09:16:32;9.55;;;3.72;;
67185;SDS011;54116;53.518;49.398;2023-02-15T09:18:59;10.32;;;4.43;;
67185;SDS011;54116;53.518;49.398;2023-02-15T09:21:32;12.50;;;4.00;;
67185;SDS011;54116;53.518;49.398;2023-02-15T09:24:01;9.82;;;4.65;;
67185;SDS011;54116;53.518;49.398;2023-02-15T09:26:30;7.45;;;3.35;;
67185;SDS011;54116;53.518;49.398;2023-02-15T09:28:59;12.10;;;4.57;;
67185;SDS011;54116;53.518;49.398;2023-02-15T09:31:36;9.50;;;3.67;;
67185;SDS011;54116;53.518;49.398;2023-02-15T09:34:04;8.95;;;3.97;;
67185;SDS011;54116;53.518;49.398;2023-02-15T09:36:32;10.25;;;4.22;;
67185;SDS011;54116;53.518;49.398;2023-02-15T09:39:25;10.77;;;4.13;;
67185;SDS011;54116;53.518;49.398;2023-02-15T09:42:00;10.00;;;3.72;;
67185;SDS011;54116;53.518;49.398;2023-02-15T10:10:10;10.50;;;4.13;;
67185;SDS011;54116;53.518;49.398;2023-02-15T10:15:53;8.70;;;3.92;;
67185;SDS011;54116;53.518;49.398;2023-02-15T10:18:42;9.38;;;4.10;;
67185;SDS011;54116;53.518;49.398;2023-02-15T10:26:44;11.23;;;4.05;;
67185;SDS011;54116;53.518;49.398;2023-02-15T10:29:29;9.73;;;4.50;;
67185;SDS011;54116;53.518;49.398;2023-02-15T10:45:51;15.23;;;4.93;;
67185;SDS011;54116;53.518;49.398;2023-02-15T10:51:19;10.30;;;3.83;;
67185;SDS011;54116;53.518;49.398;2023-02-15T10:54:12;9.77;;;3.42;;
67185;SDS011;54116;53.518;49.398;2023-02-15T10:57:05;10.60;;;4.13;;
67185;SDS011;54116;53.518;49.398;2023-02-15T11:08:21;13.45;;;5.40;;
67185;SDS011;54116;53.518;49.398;2023-02-15T11:10:55;11.55;;;3.97;;
67185;SDS011;54116;53.518;49.398;2023-02-15T11:13:29;7.28;;;3.45;;
67185;SDS011;54116;53.518;49.398;2023-02-15T11:19:14;10.55;;;5.40;;
67185;SDS011;54116;53.518;49.398;2023-02-15T11:21:49;13.20;;;4.43;;
67185;SDS011;54116;53.518;49.398;2023-02-15T11:24:29;9.88;;;4.05;;
67185;SDS011;54116;53.518;49.398;2023-02-15T11:29:57;18.33;;;6.10;;
67185;SDS011;54116;53.518;49.398;2023-02-15T11:32:40;11.50;;;4.70;;
67185;SDS011;54116;53.518;49.398;2023-02-15T11:40:17;10.00;;;3.38;;
67185;SDS011;54116;53.518;49.398;2023-02-15T11:42:47;11.90;;;4.93;;
67185;SDS011;54116;53.518;49.398;2023-02-15T11:48:00;13.60;;;4.70;;
67185;SDS011;54116;53.518;49.398;2023-02-15T11:50:31;10.50;;;4.95;;
67185;SDS011;54116;53.518;49.398;2023-02-15T11:52:59;9.60;;;3.97;;
67185;SDS011;54116;53.518;49.398;2023-02-15T11:55:31;11.05;;;3.97;;
67185;SDS011;54116;53.518;49.398;2023-02-15T12:02:53;11.35;;;4.28;;
67185;SDS011;54116;53.518;49.398;2023-02-15T12:05:23;11.85;;;4.30;;
67185;SDS011;54116;53.518;49.398;2023-02-15T12:07:58;10.25;;;4.40;;
67185;SDS011;54116;53.518;49.398;2023-02-15T12:11:17;8.93;;;4.10;;
67185;SDS011;54116;53.518;49.398;2023-02-15T12:13:17;11.43;;;4.25;;
67185;SDS011;54116;53.518;49.398;2023-02-15T12:15:46;12.18;;;4.80;;
67185;SDS011;54116;53.518;49.398;2023-02-15T12:21:10;9.13;;;3.80;;
67185;SDS011;54116;53.518;49.398;2023-02-15T12:23:45;12.60;;;4.53;;
67185;SDS011;54116;53.518;49.398;2023-02-15T12:26:14;12.70;;;4.15;;
67185;SDS011;54116;53.518;49.398;2023-02-15T12:28:41;9.85;;;3.83;;
67185;SDS011;54116;53.518;49.398;2023-02-15T12:31:20;8.73;;;3.03;;
67185;SDS011;54116;53.518;49.398;2023-02-15T12:34:11;11.82;;;3.97;;
67185;SDS011;54116;53.518;49.398;2023-02-15T12:36:47;12.90;;;4.32;;
67185;SDS011;54116;53.518;49.398;2023-02-15T12:39:27;9.60;;;4.22;;
67185;SDS011;54116;53.518;49.398;2023-02-15T12:42:04;13.77;;;3.75;;
67185;SDS011;54116;53.518;49.398;2023-02-15T12:44:52;9.32;;;3.53;;
67185;SDS011;54116;53.518;49.398;2023-02-15T12:47:24;11.27;;;3.95;;
67185;SDS011;54116;53.518;49.398;2023-02-15T12:50:13;14.10;;;4.32;;
67185;SDS011;54116;53.518;49.398;2023-02-15T12:52:48;11.60;;;3.85;;
67185;SDS011;54116;53.518;49.398;2023-02-15T12:55:26;9.05;;;3.65;;
67185;SDS011;54116;53.518;49.398;2023-02-15T12:58:14;9.82;;;4.03;;
67185;SDS011;54116;53.518;49.398;2023-02-15T13:00:43;13.13;;;4.32;;
67185;SDS011;54116;53.518;49.398;2023-02-15T13:03:18;10.55;;;4.05;;
67185;SDS011;54116;53.518;49.398;2023-02-15T13:05:50;8.77;;;4.00;;
67185;SDS011;54116;53.518;49.398;2023-02-15T13:08:20;11.73;;;4.28;;
67185;SDS011;54116;53.518;49.398;2023-02-15T13:11:04;9.73;;;4.13;;
67185;SDS011;54116;53.518;49.398;2023-02-15T13:13:36;8.90;;;3.72;;
67185;SDS011;54116;53.518;49.398;2023-02-15T13:21:31;9.93;;;3.28;;
67185;SDS011;54116;53.518;49.398;2023-02-15T13:24:05;15.48;;;4.50;;
67185;SDS011;54116;53.518;49.398;2023-02-15T13:26:36;14.98;;;5.15;;
67185;SDS011;54116;53.518;49.398;2023-02-15T13:29:06;10.65;;;4.57;;
67185;SDS011;54116;53.518;49.398;2023-02-15T13:31:38;14.45;;;4.65;;
67185;SDS011;54116;53.518;49.398;2023-02-15T13:34:09;14.07;;;4.30;;
67185;SDS011;54116;53.518;49.398;2023-02-15T13:39:41;11.23;;;3.97;;
67185;SDS011;54116;53.518;49.398;2023-02-15T13:42:25;10.10;;;4.18;;
67185;SDS011;54116;53.518;49.398;2023-02-15T13:45:09;9.85;;;2.80;;
67185;SDS011;54116;53.518;49.398;2023-02-15T13:50:34;9.68;;;5.07;;
67185;SDS011;54116;53.518;49.398;2023-02-15T13:58:42;8.68;;;3.70;;
67185;SDS011;54116;53.518;49.398;2023-02-15T14:11:56;16.65;;;6.05;;
67185;SDS011;54116;53.518;49.398;2023-02-15T14:17:20;15.52;;;6.13;;
67185;SDS011;54116;53.518;49.398;2023-02-15T14:20:00;25.25;;;11.25;;
67185;SDS011;54116;53.518;49.398;2023-02-15T14:22:58;16.05;;;6.35;;
67185;SDS011;54116;53.518;49.398;2023-02-15T14:25:42;14.65;;;3.33;;
67185;SDS011;54116;53.518;49.398;2023-02-15T14:31:07;14.93;;;4.95;;
67185;SDS011;54116;53.518;49.398;2023-02-15T14:33:40;11.75;;;4.72;;
67185;SDS011;54116;53.518;49.398;2023-02-15T14:36:15;13.27;;;4.50;;
67185;SDS011;54116;53.518;49.398;2023-02-15T14:42:12;12.48;;;5.00;;
67185;SDS011;54116;53.518;49.398;2023-02-15T14:45:27;12.02;;;4.93;;
67185;SDS011;54116;53.518;49.398;2023-02-15T14:48:03;12.73;;;4.72;;
67185;SDS011;54116;53.518;49.398;2023-02-15T14:50:55;11.75;;;4.93;;
67185;SDS011;54116;53.518;49.398;2023-02-15T14:56:17;10.40;;;4.15;;
67185;SDS011;54116;53.518;49.398;2023-02-15T15:01:30;9.85;;;3.42;;
67185;SDS011;54116;53.518;49.398;2023-02-15T15:04:00;10.98;;;4.50;;
67185;SDS011;54116;53.518;49.398;2023-02-15T15:06:35;12.02;;;3.65;;
67185;SDS011;54116;53.518;49.398;2023-02-15T15:09:10;11.65;;;4.40;;
67185;SDS011;54116;53.518;49.398;2023-02-15T15:11:44;13.75;;;5.35;;
67185;SDS011;54116;53.518;49.398;2023-02-15T15:16:58;7.93;;;2.95;;
67185;SDS011;54116;53.518;49.398;2023-02-15T15:22:44;9.73;;;3.33;;
67185;SDS011;54116;53.518;49.398;2023-02-15T15:25:10;10.32;;;4.53;;
67185;SDS011;54116;53.518;49.398;2023-02-15T15:27:57;9.43;;;3.83;;
67185;SDS011;54116;53.518;49.398;2023-02-15T15:43:40;10.73;;;4.05;;
67185;SDS011;54116;53.518;49.398;2023-02-15T15:49:16;45.95;;;15.13;;
67185;SDS011;54116;53.518;49.398;2023-02-15T15:51:46;12.45;;;4.88;;
67185;SDS011;54116;53.518;49.398;2023-02-15T15:54:22;13.93;;;5.82;;
67185;SDS011;54116;53.518;49.398;2023-02-15T15:56:54;12.35;;;4.85;;
67185;SDS011;54116;53.518;49.398;2023-02-15T15:59:30;14.23;;;6.35;;
67185;SDS011;54116;53.518;49.398;2023-02-15T16:02:05;13.15;;;5.82;;
67185;SDS011;54116;53.518;49.398;2023-02-15T16:04:33;11.65;;;5.05;;
67185;SDS011;54116;53.518;49.398;2023-02-15T16:10:02;9.45;;;4.30;;
67185;SDS011;54116;53.518;49.398;2023-02-15T16:12:33;13.30;;;4.20;;
67185;SDS011;54116;53.518;49.398;2023-02-15T16:15:04;13.70;;;5.10;;
67185;SDS011;54116;53.518;49.398;2023-02-15T16:17:46;11.68;;;4.55;;
67185;SDS011;54116;53.518;49.398;2023-02-15T16:20:17;13.60;;;4.60;;
67185;SDS011;54116;53.518;49.398;2023-02-15T16:22:48;13.32;;;4.90;;
67185;SDS011;54116;53.518;49.398;2023-02-15T16:28:07;10.73;;;5.57;;
67185;SDS011;54116;53.518;49.398;2023-02-15T16:30:36;10.73;;;4.30;;
67185;SDS011;54116;53.518;49.398;2023-02-15T16:33:09;12.75;;;4.55;;
67185;SDS011;54116;53.518;49.398;2023-02-15T16:35:37;8.80;;;4.22;;
67185;SDS011;54116;53.518;49.398;2023-02-15T16:38:05;9.40;;;4.13;;
67185;SDS011;54116;53.518;49.398;2023-02-15T16:40:45;11.98;;;3.65;;
67185;SDS011;54116;53.518;49.398;2023-02-15T16:45:50;13.10;;;4.05;;
67185;SDS011;54116;53.518;49.398;2023-02-15T16:48:21;10.23;;;4.45;;
67185;SDS011;54116;53.518;49.398;2023-02-15T16:50:49;10.73;;;5.00;;
67185;SDS011;54116;53.518;49.398;2023-02-15T16:53:20;8.70;;;4.35;;
67185;SDS011;54116;53.518;49.398;2023-02-15T16:55:52;10.93;;;5.65;;
67185;SDS011;54116;53.518;49.398;2023-02-15T16:58:25;10.48;;;4.07;;
67185;SDS011;54116;53.518;49.398;2023-02-15T17:00:58;11.35;;;4.72;;
67185;SDS011;54116;53.518;49.398;2023-02-15T17:03:26;10.35;;;3.58;;
67185;SDS011;54116;53.518;49.398;2023-02-15T17:05:55;10.07;;;3.40;;
67185;SDS011;54116;53.518;49.398;2023-02-15T17:08:24;9.15;;;4.18;;
67185;SDS011;54116;53.518;49.398;2023-02-15T17:13:35;9.95;;;3.60;;
67185;SDS011;54116;53.518;49.398;2023-02-15T17:23:58;11.30;;;3.97;;
67185;SDS011;54116;53.518;49.398;2023-02-15T17:28:59;10.90;;;4.63;;
67185;SDS011;54116;53.518;49.398;2023-02-15T17:31:30;12.85;;;4.70;;
67185;SDS011;54116;53.518;49.398;2023-02-15T17:33:58;11.50;;;4.40;;
67185;SDS011;54116;53.518;49.398;2023-02-15T17:36:26;12.35;;;4.43;;
67185;SDS011;54116;53.518;49.398;2023-02-15T17:41:27;9.70;;;4.18;;
67185;SDS011;54116;53.518;49.398;2023-02-15T17:43:59;13.20;;;4.50;;
67185;SDS011;54116;53.518;49.398;2023-02-15T17:46:28;14.63;;;3.95;;
67185;SDS011;54116;53.518;49.398;2023-02-15T17:49:00;12.10;;;4.55;;
67185;SDS011;54116;53.518;49.398;2023-02-15T17:51:26;9.98;;;3.47;;
67185;SDS011;54116;53.518;49.398;2023-02-15T17:53:52;12.05;;;4.70;;
67185;SDS011;54116;53.518;49.398;2023-02-15T17:56:37;11.60;;;4.80;;
67185;SDS011;54116;53.518;49.398;2023-02-15T17:59:05;13.15;;;4.70;;
67185;SDS011;54116;53.518;49.398;2023-02-15T18:01:32;12.07;;;4.78;;
67185;SDS011;54116;53.518;49.398;2023-02-15T18:04:18;14.50;;;4.43;;
67185;SDS011;54116;53.518;49.398;2023-02-15T18:07:03;12.20;;;5.07;;
67185;SDS011;54116;53.518;49.398;2023-02-15T18:09:48;16.42;;;5.10;;
67185;SDS011;54116;53.518;49.398;2023-02-15T18:12:34;15.00;;;4.82;;
67185;SDS011;54116;53.518;49.398;2023-02-15T18:15:04;17.40;;;4.65;;
67185;SDS011;54116;53.518;49.398;2023-02-15T18:17:36;12.90;;;4.57;;
67185;SDS011;54116;53.518;49.398;2023-02-15T18:22:45;13.63;;;4.40;;
67185;SDS011;54116;53.518;49.398;2023-02-15T18:25:16;8.70;;;3.78;;
67185;SDS011;54116;53.518;49.398;2023-02-15T18:27:43;10.85;;;4.50;;
67185;SDS011;54116;53.518;49.398;2023-02-15T18:30:13;12.07;;;4.80;;
67185;SDS011;54116;53.518;49.398;2023-02-15T18:32:41;11.88;;;3.75;;